Time;durP1;ratioP1;P1;durP2;ratioP2;P2;SDS_P1;SDS_P2;PMS_P1;PMS_P2;Temp;Humidity;BMP_temperature;BMP_pressure;BME280_temperature;BME280_humidity;BME280_pressure;Samples;Min_cycle;Max_cycle;Signal;HPM_P1;HPM_P2
2024/03/05 00:00:43;;;;;;;19.67;12.38;;;;;;;7.61;100.00;101138.31;5090907;28;20046;-67
2024/03/05 00:03:31;;;;;;;18.80;12.32;;;;;;;7.54;100.00;101132.22;5078494;28;20048;-67
2024/03/05 00:06:19;;;;;;;20.38;12.55;;;;;;;7.50;100.00;101133.75;5092874;28;20512;-68
2024/03/05 00:09:07;;;;;;;19.55;12.55;;;;;;;7.48;100.00;101127.75;5060770;28;20508;-67
2024/03/05 00:11:54;;;;;;;19.75;12.13;;;;;;;7.49;100.00;101129.41;5078416;28;20140;-68
2024/03/05 00:14:42;;;;;;;21.13;12.90;;;;;;;7.48;100.00;101127.75;5096636;28;20075;-68
2024/03/05 00:17:30;;;;;;;19.08;11.68;;;;;;;7.44;100.00;101134.72;5109466;28;20043;-67
2024/03/05 00:20:18;;;;;;;18.30;12.75;;;;;;;7.42;100.00;101140.38;5085296;28;20040;-67
2024/03/05 00:23:07;;;;;;;23.20;13.30;;;;;;;7.42;100.00;101134.13;5090303;28;20059;-67
2024/03/05 00:25:56;;;;;;;23.70;13.10;;;;;;;7.40;100.00;101134.34;5076970;28;20182;-68
2024/03/05 00:28:45;;;;;;;20.05;12.30;;;;;;;7.39;100.00;101134.63;5059760;28;20036;-67
2024/03/05 00:31:33;;;;;;;19.80;12.98;;;;;;;7.40;100.00;101131.66;5057658;28;20488;-68
2024/03/05 00:34:21;;;;;;;20.83;12.88;;;;;;;7.43;100.00;101130.34;5046013;28;20044;-67
2024/03/05 00:37:09;;;;;;;19.83;13.45;;;;;;;7.44;100.00;101137.44;5080536;28;20039;-67
2024/03/05 00:39:58;;;;;;;18.75;12.27;;;;;;;7.44;100.00;101130.09;5071758;28;20049;-68
2024/03/05 00:42:46;;;;;;;23.98;13.05;;;;;;;7.44;100.00;101132.00;5083886;28;20136;-68
2024/03/05 00:45:34;;;;;;;20.05;13.35;;;;;;;7.42;100.00;101134.94;5083143;28;20487;-64
2024/03/05 00:48:22;;;;;;;19.20;12.90;;;;;;;7.42;100.00;101136.84;5123591;28;20403;-65
2024/03/05 00:51:10;;;;;;;23.02;13.23;;;;;;;7.43;100.00;101133.06;5114804;28;20048;-68
2024/03/05 00:53:58;;;;;;;19.70;13.88;;;;;;;7.40;100.00;101137.06;5104830;28;20048;-66
2024/03/05 00:56:46;;;;;;;22.80;14.60;;;;;;;7.36;100.00;101132.34;5109317;28;20067;-64
2024/03/05 00:59:34;;;;;;;19.05;13.80;;;;;;;7.33;100.00;101127.41;5098058;27;20039;-67
2024/03/05 01:02:22;;;;;;;23.95;14.73;;;;;;;7.31;100.00;101130.38;5081527;28;20131;-68
2024/03/05 01:05:11;;;;;;;22.10;14.70;;;;;;;7.30;100.00;101136.03;5092555;28;20060;-67
2024/03/05 01:07:59;;;;;;;21.63;15.07;;;;;;;7.29;100.00;101132.50;5096192;28;20407;-68
2024/03/05 01:10:47;;;;;;;25.33;15.95;;;;;;;7.25;100.00;101140.28;5099278;28;20044;-69
2024/03/05 01:13:36;;;;;;;21.05;15.10;;;;;;;7.20;100.00;101126.63;5130552;27;20079;-67
2024/03/05 01:16:26;;;;;;;24.23;15.95;;;;;;;7.18;100.00;101125.22;5131444;27;20143;-67
2024/03/05 01:19:14;;;;;;;24.50;15.88;;;;;;;7.12;100.00;101127.00;5081474;28;20044;-67
2024/03/05 01:22:02;;;;;;;22.60;16.05;;;;;;;7.07;100.00;101129.59;5091210;28;20508;-67
2024/03/05 01:24:50;;;;;;;22.75;15.27;;;;;;;7.04;100.00;101121.91;5065069;28;20483;-67
2024/03/05 01:27:39;;;;;;;24.45;16.70;;;;;;;7.10;100.00;101120.16;5089434;28;20492;-67
2024/03/05 01:30:28;;;;;;;28.70;17.23;;;;;;;7.12;100.00;101124.28;5094885;28;20048;-67
2024/03/05 01:33:22;;;;;;;26.25;17.27;;;;;;;7.09;100.00;101124.75;5061542;28;20051;-67
2024/03/05 01:36:10;;;;;;;26.20;19.08;;;;;;;7.04;100.00;101111.91;5095228;28;20040;-67
2024/03/05 01:38:58;;;;;;;25.05;17.73;;;;;;;7.02;100.00;101118.63;5076142;28;20044;-67
2024/03/05 01:41:46;;;;;;;25.55;17.67;;;;;;;7.03;100.00;101114.88;5073953;28;20052;-67
2024/03/05 01:44:34;;;;;;;24.42;18.25;;;;;;;7.06;100.00;101114.38;5083727;28;20043;-68
2024/03/05 01:47:23;;;;;;;27.20;18.27;;;;;;;7.14;100.00;101115.91;5089923;28;20036;-68
2024/03/05 01:50:11;;;;;;;26.15;19.10;;;;;;;7.18;100.00;101112.47;5091777;28;20555;-67
2024/03/05 01:52:59;;;;;;;30.30;20.20;;;;;;;7.21;100.00;101112.00;5088597;28;20134;-68
2024/03/05 01:55:47;;;;;;;27.75;20.00;;;;;;;7.20;100.00;101113.06;5096333;28;20483;-67
2024/03/05 01:58:36;;;;;;;25.73;18.80;;;;;;;7.21;100.00;101116.59;5082850;28;20039;-67
2024/03/05 02:01:25;;;;;;;29.77;21.42;;;;;;;7.20;100.00;101110.34;5094534;28;20044;-67
2024/03/05 02:04:15;;;;;;;28.88;20.63;;;;;;;7.20;100.00;101107.66;5093938;28;20032;-67
2024/03/05 02:07:06;;;;;;;33.72;21.30;;;;;;;7.20;100.00;101109.53;5096576;28;20065;-67
2024/03/05 02:09:55;;;;;;;31.60;22.27;;;;;;;7.17;100.00;101108.13;5110311;28;20052;-67
2024/03/05 02:12:43;;;;;;;30.05;21.70;;;;;;;7.15;100.00;101106.72;5075400;28;20046;-68
2024/03/05 02:15:31;;;;;;;31.00;21.52;;;;;;;7.12;100.00;101101.75;5113636;28;20046;-67
2024/03/05 02:18:19;;;;;;;33.85;22.13;;;;;;;7.15;100.00;101102.13;5101348;28;20039;-68
2024/03/05 02:21:07;;;;;;;32.17;23.42;;;;;;;7.18;100.00;101101.63;5126264;28;20112;-68
2024/03/05 02:23:55;;;;;;;33.83;24.23;;;;;;;7.19;100.00;101100.59;5088325;28;20040;-68
2024/03/05 02:26:43;;;;;;;35.65;25.15;;;;;;;7.19;100.00;101097.88;5104893;28;20042;-68
2024/03/05 02:29:38;;;;;;;35.03;25.08;;;;;;;7.23;100.00;101099.03;5109980;28;20035;-67
2024/03/05 02:32:27;;;;;;;36.80;25.65;;;;;;;7.24;100.00;101099.88;5098828;28;20040;-67
2024/03/05 02:35:15;;;;;;;33.47;24.50;;;;;;;7.24;100.00;101099.88;5111515;28;20067;-68
2024/03/05 02:38:05;;;;;;;35.08;25.33;;;;;;;7.25;100.00;101102.34;5092344;28;20048;-67
2024/03/05 02:40:54;;;;;;;35.50;25.52;;;;;;;7.27;100.00;101096.69;5094254;28;20571;-67
2024/03/05 02:43:44;;;;;;;36.90;25.80;;;;;;;7.31;100.00;101095.16;5092411;28;20547;-67
2024/03/05 02:46:32;;;;;;;37.50;26.95;;;;;;;7.33;100.00;101093.00;5081807;28;20549;-67
2024/03/05 02:49:19;;;;;;;40.25;26.13;;;;;;;7.32;100.00;101091.38;5094378;28;20043;-67
2024/03/05 02:52:08;;;;;;;38.30;27.13;;;;;;;7.35;100.00;101095.47;5109931;28;20044;-67
2024/03/05 02:54:57;;;;;;;36.10;26.20;;;;;;;7.34;100.00;101093.84;5093549;28;20445;-68
2024/03/05 02:57:45;;;;;;;39.55;26.83;;;;;;;7.37;100.00;101101.50;5073786;28;20547;-67
2024/03/05 03:00:33;;;;;;;35.05;25.85;;;;;;;7.35;100.00;101098.19;5095266;28;20451;-67
2024/03/05 03:03:21;;;;;;;37.42;26.48;;;;;;;7.34;100.00;101099.28;5095455;28;20059;-67
2024/03/05 03:06:19;;;;;;;38.95;27.90;;;;;;;7.37;100.00;101096.88;5117090;27;20050;-66
2024/03/05 03:09:07;;;;;;;39.20;29.00;;;;;;;7.39;100.00;101102.09;5122703;27;20129;-68
2024/03/05 03:11:56;;;;;;;41.50;28.33;;;;;;;7.38;100.00;101092.28;5097180;28;20111;-67
2024/03/05 03:14:44;;;;;;;41.38;29.27;;;;;;;7.35;100.00;101101.72;5065642;28;20108;-68
2024/03/05 03:17:33;;;;;;;39.30;29.20;;;;;;;7.37;100.00;101102.31;5065899;28;20063;-68
2024/03/05 03:20:23;;;;;;;38.78;28.65;;;;;;;7.38;100.00;101101.22;5086972;28;20040;-68
2024/03/05 03:23:11;;;;;;;39.58;27.35;;;;;;;7.32;100.00;101096.78;5084939;28;20130;-68
2024/03/05 03:25:59;;;;;;;34.30;24.90;;;;;;;7.22;100.00;101094.69;5098876;28;20090;-67
2024/03/05 03:28:48;;;;;;;36.25;25.70;;;;;;;7.24;100.00;101099.88;5114115;28;20532;-67
2024/03/05 03:31:39;;;;;;;36.63;24.67;;;;;;;7.25;100.00;101098.81;5114016;27;20444;-66
2024/03/05 03:34:27;;;;;;;36.20;26.48;;;;;;;7.24;100.00;101103.41;5120170;27;20054;-68
2024/03/05 03:37:16;;;;;;;36.80;26.27;;;;;;;7.20;100.00;101096.00;5078147;28;20048;-67
2024/03/05 03:40:07;;;;;;;35.67;25.48;;;;;;;7.19;100.00;101091.63;5087555;27;20043;-68
2024/03/05 03:42:56;;;;;;;36.00;25.00;;;;;;;7.16;100.00;101101.06;5104612;27;20174;-67
2024/03/05 03:45:43;;;;;;;38.20;25.85;;;;;;;7.16;100.00;101098.34;5081072;27;20044;-67
2024/03/05 03:48:31;;;;;;;33.22;24.67;;;;;;;7.16;100.00;101101.06;5097816;28;20051;-67
2024/03/05 03:51:19;;;;;;;37.55;26.67;;;;;;;7.24;100.00;101102.59;5097117;28;20044;-69
2024/03/05 03:54:08;;;;;;;37.85;25.75;;;;;;;7.27;100.00;101104.00;5093808;28;20073;-67
2024/03/05 03:56:56;;;;;;;37.00;26.13;;;;;;;7.30;100.00;101104.34;5097815;28;20070;-67
2024/03/05 03:59:44;;;;;;;39.00;27.38;;;;;;;7.34;100.00;101104.69;5128383;27;20455;-68
2024/03/05 04:02:32;;;;;;;39.92;28.30;;;;;;;7.35;100.00;101106.31;5091821;28;20068;-67
2024/03/05 04:05:19;;;;;;;38.30;27.30;;;;;;;7.36;100.00;101102.53;5077108;28;20048;-68
2024/03/05 04:08:08;;;;;;;42.67;29.88;;;;;;;7.38;100.00;101108.56;5091738;28;20200;-68
2024/03/05 04:10:56;;;;;;;43.22;29.45;;;;;;;7.37;100.00;101113.16;5080099;27;20058;-68
2024/03/05 04:13:44;;;;;;;38.90;29.30;;;;;;;7.37;100.00;101115.06;5077014;28;20048;-68
2024/03/05 04:16:32;;;;;;;38.78;28.77;;;;;;;7.35;100.00;101111.75;5091021;28;20512;-68
2024/03/05 04:19:20;;;;;;;41.42;28.85;;;;;;;7.36;100.00;101113.38;5077213;28;20388;-68
2024/03/05 04:22:08;;;;;;;39.95;28.75;;;;;;;7.35;100.00;101111.75;5086536;28;20149;-69
2024/03/05 04:24:57;;;;;;;41.08;28.55;;;;;;;7.33;100.00;101122.81;5096902;28;20054;-68
2024/03/05 04:27:48;;;;;;;40.75;29.58;;;;;;;7.33;100.00;101113.88;5112237;28;20364;-69
2024/03/05 04:30:37;;;;;;;39.90;27.85;;;;;;;7.37;100.00;101115.06;5095867;28;20047;-69
2024/03/05 04:33:28;;;;;;;39.58;28.20;;;;;;;7.41;100.00;101118.94;5109597;27;20047;-68
2024/03/05 04:36:16;;;;;;;44.33;29.08;;;;;;;7.44;100.00;101115.75;5081065;27;20205;-67
2024/03/05 04:39:06;;;;;;;41.55;28.52;;;;;;;7.49;100.00;101117.72;5097764;28;20056;-67
2024/03/05 04:41:54;;;;;;;40.95;28.98;;;;;;;7.50;100.00;101117.47;5097501;28;20095;-68
2024/03/05 04:44:46;;;;;;;43.30;30.00;;;;;;;7.52;100.00;101115.34;5064795;28;20104;-67
2024/03/05 04:47:35;;;;;;;40.70;29.48;;;;;;;7.53;100.00;101125.16;5090600;28;20083;-68
2024/03/05 04:50:24;;;;;;;41.53;29.65;;;;;;;7.52;100.00;101118.06;5124717;27;20047;-67
2024/03/05 04:53:12;;;;;;;41.05;29.42;;;;;;;7.48;100.00;101116.91;5116381;27;20039;-68
2024/03/05 04:56:01;;;;;;;39.60;28.80;;;;;;;7.44;100.00;101108.41;5082139;28;20047;-68
2024/03/05 04:58:49;;;;;;;48.03;29.08;;;;;;;7.42;100.00;101112.44;5118510;28;20040;-65
2024/03/05 05:01:37;;;;;;;41.92;29.38;;;;;;;7.46;100.00;101113.63;5114952;27;20059;-62
2024/03/05 05:04:25;;;;;;;45.00;30.13;;;;;;;7.49;100.00;101112.31;5091948;28;20074;-67
2024/03/05 05:07:13;;;;;;;45.00;31.27;;;;;;;7.48;100.00;101111.50;5114170;28;20067;-68
2024/03/05 05:10:01;;;;;;;42.75;30.15;;;;;;;7.46;100.00;101114.44;5123463;28;20047;-67
2024/03/05 05:12:49;;;;;;;42.22;30.15;;;;;;;7.46;100.00;101116.31;5115998;28;20052;-68
2024/03/05 05:15:37;;;;;;;40.80;29.95;;;;;;;7.45;100.00;101114.66;5075163;28;20100;-67
2024/03/05 05:18:25;;;;;;;43.05;31.25;;;;;;;7.46;100.00;101110.91;5064725;28;20044;-67
2024/03/05 05:21:13;;;;;;;46.63;31.08;;;;;;;7.46;100.00;101106.31;5076227;28;20134;-67
2024/03/05 05:24:01;;;;;;;42.75;30.73;;;;;;;7.49;100.00;101110.41;5075859;28;20655;-68
2024/03/05 05:26:49;;;;;;;42.00;29.73;;;;;;;7.52;100.00;101119.97;5080678;28;20143;-68
2024/03/05 05:29:37;;;;;;;44.28;31.70;;;;;;;7.56;100.00;101123.84;5094859;28;20055;-67
2024/03/05 05:32:29;;;;;;;45.88;32.50;;;;;;;7.58;100.00;101136.09;5112039;28;20055;-67
2024/03/05 05:35:18;;;;;;;42.70;31.70;;;;;;;7.59;100.00;101140.44;5074680;28;20436;-68
2024/03/05 05:38:10;;;;;;;44.05;31.13;;;;;;;7.57;100.00;101139.84;5105083;28;20062;-68
2024/03/05 05:40:58;;;;;;;44.03;29.92;;;;;;;7.55;100.00;101133.88;5111531;28;20134;-68
2024/03/05 05:43:46;;;;;;;44.78;31.60;;;;;;;7.54;100.00;101143.06;5105807;28;20044;-68
2024/03/05 05:46:35;;;;;;;47.28;33.45;;;;;;;7.55;100.00;101141.16;5111103;28;20185;-66
2024/03/05 05:49:23;;;;;;;47.05;33.78;;;;;;;7.50;100.00;101138.34;5111748;28;20046;-67
2024/03/05 05:52:11;;;;;;;47.65;34.00;;;;;;;7.45;100.00;101133.63;5092369;28;20043;-67
2024/03/05 05:55:00;;;;;;;51.13;35.28;;;;;;;7.36;100.00;101132.34;5114406;27;20039;-68
2024/03/05 05:57:49;;;;;;;49.20;34.33;;;;;;;7.32;100.00;101144.75;5107334;27;20074;-67
2024/03/05 06:00:39;;;;;;;51.95;33.45;;;;;;;7.35;100.00;101136.13;5129727;27;20711;-66
2024/03/05 06:03:27;;;;;;;47.47;34.33;;;;;;;7.33;100.00;101130.94;5073820;28;20059;-67
2024/03/05 06:06:19;;;;;;;50.50;35.55;;;;;;;7.28;100.00;101130.84;5094680;28;20138;-67
2024/03/05 06:09:10;;;;;;;43.60;33.00;;;;;;;7.29;100.00;101135.22;5095987;28;20062;-67
2024/03/05 06:11:58;;;;;;;46.72;33.28;;;;;;;7.35;100.00;101144.28;5110531;28;20054;-66
2024/03/05 06:14:46;;;;;;;50.38;33.75;;;;;;;7.37;100.00;101137.56;5071978;28;20571;-67
2024/03/05 06:17:34;;;;;;;42.17;31.50;;;;;;;7.41;100.00;101149.56;5075751;28;20052;-67
2024/03/05 06:20:22;;;;;;;47.20;33.42;;;;;;;7.47;100.00;101153.22;5090216;28;20136;-66
2024/03/05 06:23:11;;;;;;;47.88;32.28;;;;;;;7.52;100.00;101153.31;5075310;28;20071;-68
2024/03/05 06:25:59;;;;;;;45.22;32.28;;;;;;;7.55;100.00;101160.13;5093302;28;20056;-67
2024/03/05 06:28:48;;;;;;;48.75;34.00;;;;;;;7.54;100.00;101159.31;5096354;28;20452;-68
2024/03/05 06:31:36;;;;;;;48.40;34.65;;;;;;;7.51;100.00;101159.81;5091721;28;20109;-68
2024/03/05 06:34:25;;;;;;;50.88;34.60;;;;;;;7.44;100.00;101165.34;5090274;28;20048;-68
2024/03/05 06:37:13;;;;;;;45.72;33.17;;;;;;;7.38;100.00;101165.47;5099258;28;20268;-67
2024/03/05 06:40:06;;;;;;;46.95;34.03;;;;;;;7.35;100.00;101169.50;5100163;28;20047;-68
2024/03/05 06:43:03;;;;;;;48.53;33.78;;;;;;;7.37;100.00;101163.84;5106440;28;20252;-68
2024/03/05 06:45:52;;;;;;;48.67;32.88;;;;;;;7.35;100.00;101165.97;5114080;28;20577;-68
2024/03/05 06:48:47;;;;;;;49.10;34.05;;;;;;;7.34;100.00;101169.75;4386763;28;10000730;-67
2024/03/05 06:51:41;;;;;;;49.28;33.25;;;;;;;7.31;100.00;101160.22;5087526;28;20048;-68
2024/03/05 06:57:36;;;;;;;47.88;33.72;;;;;;;7.39;100.00;101167.13;5099908;28;20063;-69
2024/03/05 07:00:24;;;;;;;46.05;33.47;;;;;;;7.41;100.00;101165.84;5061808;28;20777;-69
2024/03/05 07:03:13;;;;;;;45.40;33.28;;;;;;;7.43;100.00;101169.13;5113856;27;20133;-68
2024/03/05 07:06:08;;;;;;;46.90;33.90;;;;;;;7.44;100.00;101175.38;5086617;28;20432;-69
2024/03/05 07:08:56;;;;;;;49.67;33.93;;;;;;;7.46;100.00;101173.25;5107744;28;20082;-68
2024/03/05 07:11:44;;;;;;;48.05;33.83;;;;;;;7.48;100.00;101173.84;5079070;28;20294;-68
2024/03/05 07:14:32;;;;;;;51.45;35.65;;;;;;;7.49;100.00;101171.97;5090203;28;20593;-68
2024/03/05 07:17:20;;;;;;;55.35;37.42;;;;;;;7.44;100.00;101175.38;5104245;28;20631;-69
2024/03/05 07:20:18;;;;;;;52.13;37.40;;;;;;;7.38;100.00;101171.72;5090264;28;20141;-67
2024/03/05 07:23:06;;;;;;;56.97;37.65;;;;;;;7.35;100.00;101176.81;5070674;28;20048;-67
2024/03/05 07:25:55;;;;;;;53.30;37.90;;;;;;;7.34;100.00;101186.00;5088966;28;20059;-68
2024/03/05 07:28:43;;;;;;;50.63;35.95;;;;;;;7.33;100.00;101181.63;5076916;28;20047;-71
2024/03/05 07:31:32;;;;;;;54.45;37.42;;;;;;;7.36;100.00;101181.16;5099960;27;20059;-68
2024/03/05 07:34:20;;;;;;;57.42;39.45;;;;;;;7.36;100.00;101186.56;5113907;28;20042;-68
2024/03/05 07:37:09;;;;;;;54.88;38.28;;;;;;;7.35;100.00;101183.03;5113659;28;20044;-67
2024/03/05 07:39:57;;;;;;;51.05;36.03;;;;;;;7.34;100.00;101183.31;5113368;28;20047;-67
2024/03/05 07:42:47;;;;;;;50.08;35.42;;;;;;;7.37;100.00;101188.25;5112358;28;20052;-68
2024/03/05 07:45:35;;;;;;;48.73;34.10;;;;;;;7.39;100.00;101184.22;5085754;28;20054;-67
2024/03/05 07:48:23;;;;;;;51.28;34.78;;;;;;;7.42;100.00;101186.44;5113837;28;20075;-68
2024/03/05 07:51:11;;;;;;;51.35;35.67;;;;;;;7.47;100.00;101188.44;5111806;28;20039;-67
2024/03/05 07:54:03;;;;;;;50.00;36.55;;;;;;;7.50;100.00;101190.69;5084659;28;20047;-67
2024/03/05 07:56:52;;;;;;;51.10;35.15;;;;;;;7.51;100.00;101195.06;5098212;28;20044;-67
2024/03/05 07:59:39;;;;;;;50.05;34.40;;;;;;;7.55;100.00;101190.81;5112935;28;20058;-67
2024/03/05 08:02:28;;;;;;;51.90;35.05;;;;;;;7.59;100.00;101199.28;5111788;28;20488;-67
2024/03/05 08:05:18;;;;;;;48.60;34.53;;;;;;;7.63;100.00;101204.00;5111850;28;20214;-68
2024/03/05 08:08:06;;;;;;;50.63;35.08;;;;;;;7.63;100.00;101201.28;5113407;28;20039;-67
2024/03/05 08:10:56;;;;;;;50.33;35.20;;;;;;;7.62;100.00;101205.03;5112614;28;20048;-68
2024/03/05 08:13:45;;;;;;;46.47;33.67;;;;;;;7.63;100.00;101205.88;5112672;28;20415;-68
2024/03/05 08:16:34;;;;;;;50.92;35.17;;;;;;;7.63;100.00;101206.69;5112448;28;20044;-68
2024/03/05 08:19:22;;;;;;;45.45;33.78;;;;;;;7.62;100.00;101205.03;5097600;28;20039;-68
2024/03/05 08:22:10;;;;;;;46.72;33.30;;;;;;;7.63;100.00;101201.28;5112214;28;20392;-68
2024/03/05 08:24:58;;;;;;;47.25;35.00;;;;;;;7.63;100.00;101206.69;5111491;28;20082;-68
2024/03/05 08:27:59;;;;;;;46.25;34.25;;;;;;;7.65;100.00;101209.19;5111495;28;20040;-68
2024/03/05 08:30:48;;;;;;;50.20;34.53;;;;;;;7.64;100.00;101202.91;5111755;28;20043;-68
2024/03/05 08:33:36;;;;;;;49.15;34.75;;;;;;;7.64;100.00;101208.34;5110258;28;20151;-69
2024/03/05 08:36:25;;;;;;;48.20;34.67;;;;;;;7.60;100.00;101211.75;5084378;28;20511;-68
2024/03/05 08:39:19;;;;;;;48.25;35.20;;;;;;;7.61;100.00;101213.44;5111868;28;20051;-68
2024/03/05 08:42:07;;;;;;;49.00;35.83;;;;;;;7.60;100.00;101214.47;5098021;28;20170;-67
2024/03/05 08:44:55;;;;;;;46.25;34.33;;;;;;;7.60;100.00;101218.03;5112009;28;20059;-67
2024/03/05 08:47:45;;;;;;;44.88;33.38;;;;;;;7.61;100.00;101219.66;5097981;28;20069;-67
2024/03/05 08:50:33;;;;;;;45.38;32.08;;;;;;;7.62;100.00;101215.88;5110754;28;20048;-67
2024/03/05 08:53:21;;;;;;;48.75;34.03;;;;;;;7.65;100.00;101220.03;5097147;28;20075;-68
2024/03/05 08:56:09;;;;;;;46.28;32.60;;;;;;;7.71;100.00;101223.66;5109312;27;20052;-67
2024/03/05 08:58:57;;;;;;;44.03;32.65;;;;;;;7.73;100.00;101222.38;5110781;27;20055;-66
2024/03/05 09:01:45;;;;;;;45.88;32.28;;;;;;;7.73;100.00;101224.25;5112036;28;20043;-67
2024/03/05 09:04:34;;;;;;;44.05;32.97;;;;;;;7.74;100.00;101234.03;5113335;28;20380;-68
2024/03/05 09:07:22;;;;;;;45.35;32.17;;;;;;;7.76;100.00;101234.63;4405926;27;10000412;-67
2024/03/05 09:10:10;;;;;;;44.65;32.13;;;;;;;7.78;100.00;101241.44;5100688;28;20058;-66
2024/03/05 09:12:59;;;;;;;45.08;31.90;;;;;;;7.81;100.00;101245.56;5083067;28;20047;-67
2024/03/05 09:15:47;;;;;;;45.42;32.17;;;;;;;7.83;100.00;101246.16;5076190;28;20055;-68
2024/03/05 09:18:35;;;;;;;47.92;33.03;;;;;;;7.83;100.00;101246.97;5095754;28;20522;-68
2024/03/05 09:21:23;;;;;;;48.13;33.10;;;;;;;7.85;100.00;101241.31;5113480;27;20144;-68
2024/03/05 09:24:11;;;;;;;43.03;31.75;;;;;;;7.85;100.00;101246.75;5093361;28;20051;-69
2024/03/05 09:27:00;;;;;;;43.03;31.80;;;;;;;7.84;100.00;101239.66;5076275;28;20063;-65
2024/03/05 09:29:50;;;;;;;45.75;32.13;;;;;;;7.85;100.00;101241.31;5093487;28;20127;-68
2024/03/05 09:32:38;;;;;;;43.22;32.97;;;;;;;7.85;100.00;101247.56;5073591;28;20048;-67
2024/03/05 09:35:26;;;;;;;45.67;32.30;;;;;;;7.86;100.00;101253.81;5086747;28;20073;-67
2024/03/05 09:38:16;;;;;;;41.30;30.55;;;;;;;7.86;100.00;101253.81;5109705;28;20464;-67
2024/03/05 09:41:05;;;;;;;45.85;32.50;;;;;;;7.88;100.00;101251.69;5093358;28;20511;-68
2024/03/05 09:43:53;;;;;;;44.50;31.35;;;;;;;7.89;100.00;101248.75;5073216;28;20071;-69
2024/03/05 09:46:48;;;;;;;43.10;31.80;;;;;;;7.90;100.00;101255.00;5097083;28;20060;-68
2024/03/05 09:49:36;;;;;;;44.53;34.40;;;;;;;7.91;100.00;101251.22;5066595;27;20540;-68
2024/03/05 09:52:24;;;;;;;48.33;34.92;;;;;;;7.88;100.00;101257.13;5090697;28;20510;-69
2024/03/05 09:55:14;;;;;;;45.13;34.78;;;;;;;7.88;100.00;101257.94;5080044;28;20043;-68
2024/03/05 09:58:09;;;;;;;48.40;37.03;;;;;;;7.88;100.00;101257.13;5110405;28;20067;-68
2024/03/05 10:01:00;;;;;;;45.67;32.80;;;;;;;7.89;100.00;101259.59;5082802;28;20594;-68
2024/03/05 10:03:49;;;;;;;46.58;31.35;;;;;;;7.93;100.00;101262.66;5090839;28;20093;-68
2024/03/05 10:06:36;;;;;;;44.40;31.23;;;;;;;7.96;100.00;101267.63;5110204;28;20055;-68
2024/03/05 10:09:25;;;;;;;44.53;34.20;;;;;;;7.96;100.00;101264.91;5109047;28;20058;-67
2024/03/05 10:12:16;;;;;;;45.67;32.83;;;;;;;7.95;100.00;101268.66;5112507;28;20066;-67
2024/03/05 10:15:21;;;;;;;43.22;31.83;;;;;;;7.96;100.00;101269.47;5114585;28;20051;-67
2024/03/05 10:18:09;;;;;;;40.90;31.38;;;;;;;7.96;100.00;101270.34;5118766;28;20047;-67
2024/03/05 10:21:18;;;;;;;41.22;31.33;;;;;;;7.97;100.00;101271.16;5104144;28;20062;-67
2024/03/05 10:24:07;;;;;;;46.05;31.48;;;;;;;7.98;100.00;101276.31;5116199;28;20052;-67
2024/03/05 10:26:55;;;;;;;37.20;29.27;;;;;;;8.04;100.00;101272.66;5102385;28;20047;-67
2024/03/05 10:29:43;;;;;;;42.50;30.13;;;;;;;8.10;100.00;101277.13;5117509;28;20040;-66
2024/03/05 10:32:31;;;;;;;39.25;29.30;;;;;;;8.14;100.00;101271.22;5117088;28;20081;-67
2024/03/05 10:35:19;;;;;;;36.30;27.45;;;;;;;8.11;100.00;101273.34;5117165;28;20055;-67
2024/03/05 10:38:09;;;;;;;35.15;25.15;;;;;;;8.13;100.00;101277.69;5116490;28;20441;-67
2024/03/05 10:40:58;;;;;;;36.17;25.85;;;;;;;8.13;100.00;101277.69;5117021;28;20407;-66
2024/03/05 10:43:49;;;;;;;33.40;24.17;;;;;;;8.13;100.00;101277.69;5116817;28;20083;-66
2024/03/05 10:46:38;;;;;;;35.85;23.10;;;;;;;8.15;100.00;101283.72;5103800;28;20047;-67
2024/03/05 10:49:26;;;;;;;28.95;21.08;;;;;;;8.14;100.00;101287.50;5109406;27;20133;-67
2024/03/05 10:52:15;;;;;;;27.85;19.90;;;;;;;8.15;100.00;101281.00;5107603;27;20047;-68
2024/03/05 10:55:04;;;;;;;30.00;20.75;;;;;;;8.15;100.00;101283.72;5110945;27;20076;-67
2024/03/05 11:00:58;;;;;;;25.63;19.60;;;;;;;8.20;100.00;101289.25;5123453;27;20085;-65
2024/03/05 11:03:46;;;;;;;30.35;18.90;;;;;;;8.19;100.00;101284.91;5081889;28;20048;-67
2024/03/05 11:06:36;;;;;;;26.67;18.70;;;;;;;8.21;100.00;101288.19;5041805;28;20056;-67
2024/03/05 11:09:25;;;;;;;25.65;17.60;;;;;;;8.22;100.00;101296.09;5086882;28;20386;-66
2024/03/05 11:12:16;;;;;;;21.90;15.38;;;;;;;8.22;100.00;101289.84;5101557;28;20083;-67
2024/03/05 11:15:05;;;;;;;19.45;12.98;;;;;;;8.24;100.00;101293.94;5087327;28;20063;-67
2024/03/05 11:17:57;;;;;;;21.27;14.27;;;;;;;8.27;100.00;101295.34;5113578;28;20039;-67
2024/03/05 11:20:48;;;;;;;19.38;12.00;;;;;;;8.28;100.00;101284.28;4401403;27;10000899;-67
2024/03/05 11:23:52;;;;;;;20.80;11.20;;;;;;;8.33;100.00;101288.97;5086111;27;20058;-67
2024/03/05 11:26:40;;;;;;;15.93;10.73;;;;;;;8.38;100.00;101286.34;5076228;28;20059;-68
2024/03/05 11:29:31;;;;;;;18.08;11.55;;;;;;;8.36;100.00;101296.63;5102155;28;20122;-68
2024/03/05 11:32:23;;;;;;;15.75;10.05;;;;;;;8.36;100.00;101293.91;5077103;27;20101;-68
2024/03/05 11:35:11;;;;;;;18.08;10.45;;;;;;;8.38;100.00;101293.69;5101100;27;20350;-68
2024/03/05 11:38:02;;;;;;;16.48;9.52;;;;;;;8.38;100.00;101299.94;5075210;28;20138;-68
2024/03/05 11:40:50;;;;;;;17.42;9.85;;;;;;;8.39;100.00;101298.84;5076160;28;20055;-68
2024/03/05 11:43:39;;;;;;;14.25;9.38;;;;;;;8.41;100.00;101294.03;5074424;28;20297;-69
2024/03/05 11:46:46;;;;;;;13.45;9.30;;;;;;;8.43;100.00;101300.06;5103567;27;20100;-67
2024/03/05 11:49:38;;;;;;;15.00;10.55;;;;;;;8.45;100.00;101295.22;5070892;28;20104;-69
2024/03/05 11:52:26;;;;;;;13.82;9.15;;;;;;;8.46;100.00;101293.31;5082089;28;20069;-67
2024/03/05 11:55:14;;;;;;;16.17;9.55;;;;;;;8.48;100.00;101299.34;5086143;27;20051;-67
2024/03/05 11:58:02;;;;;;;14.05;9.80;;;;;;;8.50;100.00;101298.03;5077243;28;20052;-68
2024/03/05 12:00:58;;;;;;;14.95;9.20;;;;;;;8.51;100.00;101294.25;5108226;27;20051;-67
2024/03/05 12:03:49;;;;;;;16.63;9.20;;;;;;;8.52;100.00;101290.47;5104412;27;20074;-68
2024/03/05 12:06:44;;;;;;;15.10;10.18;;;;;;;8.53;100.00;101297.53;5070798;28;20045;-67
2024/03/05 12:09:36;;;;;;;20.70;9.13;;;;;;;8.53;100.00;101300.25;5106638;28;20540;-68
2024/03/05 12:12:25;;;;;;;15.00;8.65;;;;;;;8.53;100.00;101302.16;5079109;28;20086;-67
2024/03/05 12:15:20;;;;;;;13.88;8.73;;;;;;;8.55;100.00;101304.63;5079151;28;20189;-68
2024/03/05 12:18:12;;;;;;;12.55;8.20;;;;;;;8.53;100.00;101296.72;5108347;28;20052;-71
2024/03/05 12:21:01;;;;;;;17.13;9.93;;;;;;;8.49;100.00;101299.09;5081509;28;20527;-67
2024/03/05 12:23:49;;;;;;;14.60;9.30;;;;;;;8.49;100.00;101301.81;5079139;28;20114;-67
2024/03/05 12:26:38;;;;;;;15.43;8.73;;;;;;;8.49;100.00;101307.25;5072887;28;20051;-67
2024/03/05 12:29:37;;;;;;;14.95;8.82;;;;;;;8.52;100.00;101303.22;5074406;28;20087;-68
2024/03/05 12:32:25;;;;;;;14.13;8.95;;;;;;;8.55;100.00;101300.03;5090296;27;20051;-67
2024/03/05 12:35:14;;;;;;;13.02;7.72;;;;;;;8.56;100.00;101290.78;5091413;28;20400;-67
2024/03/05 12:38:04;;;;;;;9.95;6.90;;;;;;;8.57;100.00;101306.03;5087880;28;20063;-66
2024/03/05 12:40:59;;;;;;;13.23;7.43;;;;;;;8.57;100.00;101303.31;5089225;28;20495;-68
2024/03/05 12:43:55;;;;;;;11.38;6.90;;;;;;;8.59;100.00;101294.94;5095057;28;20064;-67
2024/03/05 12:46:45;;;;;;;17.75;7.25;;;;;;;8.59;100.00;101300.38;5106573;28;20207;-68
2024/03/05 12:49:40;;;;;;;11.68;7.03;;;;;;;8.59;100.00;101301.19;5107742;28;20745;-68
2024/03/05 12:52:29;;;;;;;13.90;6.40;;;;;;;8.59;100.00;101295.75;5091032;28;20043;-68
2024/03/05 12:55:17;;;;;;;12.75;6.45;;;;;;;8.60;100.00;101305.53;5091280;28;20036;-68